createdAt,value
2018-09-15T01:40:42.641Z,0
2018-09-15T04:14:45.378Z,3
2018-09-15T04:21:45.729Z,7
2018-09-15T04:24:45.901Z,10
2018-09-15T04:26:46.037Z,13
2018-09-15T04:28:16.156Z,17
2018-09-15T04:29:16.196Z,20
2018-09-15T04:30:16.253Z,23
2018-09-15T04:30:46.266Z,27
2018-09-15T04:31:46.369Z,30
2018-09-15T04:32:16.419Z,33
2018-09-15T04:32:46.404Z,37
2018-09-15T04:33:16.467Z,40
2018-09-15T04:33:46.487Z,43
2018-09-15T04:34:16.529Z,47
2018-09-15T04:34:46.548Z,50
2018-09-15T04:35:16.588Z,57
2018-09-15T04:35:46.644Z,60
2018-09-15T04:36:16.710Z,67
2018-09-15T04:36:46.667Z,70
2018-09-15T04:37:16.686Z,77
2018-09-15T04:37:46.699Z,83
2018-09-15T04:38:16.751Z,90
2018-09-15T04:38:46.781Z,97
2018-09-15T04:39:16.811Z,103
2018-09-15T04:39:46.835Z,113
2018-09-15T04:40:16.881Z,120
2018-09-15T04:40:46.883Z,130
2018-09-15T04:41:16.962Z,137
2018-09-15T04:41:47.020Z,147
2018-09-15T04:42:16.995Z,157
2018-09-15T04:42:47.009Z,167
2018-09-15T04:43:17.054Z,177
2018-09-15T04:43:47.073Z,190
2018-09-15T04:44:17.122Z,200
2018-09-15T04:44:47.179Z,213
2018-09-15T04:45:17.173Z,223
2018-09-15T04:45:47.198Z,240
2018-09-15T04:46:17.321Z,257
2018-09-15T04:46:47.289Z,270
2018-09-15T04:47:17.325Z,290
2018-09-15T04:47:47.352Z,307
2018-09-15T04:48:17.375Z,327
2018-09-15T04:48:47.415Z,343
2018-09-15T04:49:17.460Z,363
2018-09-15T04:49:47.461Z,383
2018-09-15T04:50:17.528Z,403
2018-09-15T04:50:47.567Z,423
2018-09-15T04:51:17.673Z,440
2018-09-15T04:51:47.614Z,460
2018-09-15T04:52:17.637Z,480
2018-09-15T04:52:47.774Z,503
2018-09-15T04:53:17.723Z,527
2018-09-15T04:53:47.741Z,550
2018-09-15T04:54:17.783Z,573
2018-09-15T04:54:47.796Z,600
2018-09-15T04:55:17.830Z,627
2018-09-15T04:55:47.874Z,650
2018-09-15T04:56:17.955Z,677
2018-09-15T04:56:47.920Z,703
2018-09-15T04:57:17.961Z,737
2018-09-15T04:57:47.969Z,763
2018-09-15T04:58:18.011Z,793
2018-09-15T04:58:48.107Z,823
2018-09-15T04:59:18.082Z,853
2018-09-15T04:59:48.094Z,883
2018-09-15T05:00:18.192Z,917
2018-09-15T05:00:48.164Z,950
2018-09-15T05:01:18.247Z,987
2018-09-15T05:01:48.241Z,1023
2018-09-15T05:02:18.274Z,1063
2018-09-15T05:02:48.284Z,1100
2018-09-15T05:03:18.333Z,1143
2018-09-15T05:03:48.340Z,1190
2018-09-15T05:04:18.391Z,1237
2018-09-15T05:04:48.410Z,1290
2018-09-15T05:05:18.486Z,1347
2018-09-15T05:05:48.466Z,1400
2018-09-15T05:06:18.546Z,1450
2018-09-15T05:06:49.565Z,1497
2018-09-15T05:07:18.577Z,1547
2018-09-15T05:07:48.544Z,1587
2018-09-15T05:08:18.605Z,1627
2018-09-15T05:08:48.608Z,1667
2018-09-15T05:09:18.662Z,1707
2018-09-15T05:09:48.717Z,1750
2018-09-15T05:10:18.729Z,1800
2018-09-15T05:10:48.782Z,1850
2018-09-15T05:11:18.851Z,1900
2018-09-15T05:11:48.808Z,1943
2018-09-15T05:12:18.890Z,1990
2018-09-15T05:12:48.933Z,2037
2018-09-15T05:13:18.902Z,2090
2018-09-15T05:13:48.923Z,2143
2018-09-15T05:14:18.960Z,2193
2018-09-15T05:14:48.974Z,2250
2018-09-15T05:15:19.063Z,2293
2018-09-15T05:15:49.045Z,2333
2018-09-15T05:16:19.156Z,2363
2018-09-15T05:16:49.110Z,2377
2018-09-15T05:17:19.152Z,2390
2018-09-15T05:17:49.172Z,2393
2018-09-15T05:18:19.289Z,2397
2018-09-15T05:18:49.265Z,2410
2018-09-15T05:19:19.333Z,2397
2018-09-15T05:19:49.305Z,2400
2018-09-15T05:20:19.353Z,2407
2018-09-15T05:20:49.389Z,2433
2018-09-15T05:21:19.936Z,2487
2018-09-15T05:21:49.443Z,2500
2018-09-15T05:22:19.527Z,2547
2018-09-15T05:22:49.473Z,2560
2018-09-15T05:23:19.560Z,2593
2018-09-15T05:23:49.544Z,2640
2018-09-15T05:24:19.576Z,2667
2018-09-15T05:24:49.613Z,2730
2018-09-15T05:25:19.666Z,2777
2018-09-15T05:25:49.650Z,2803
2018-09-15T05:26:19.721Z,2817
2018-09-15T05:26:49.730Z,2850
2018-09-15T05:27:19.833Z,2893
2018-09-15T05:27:49.774Z,2937
2018-09-15T05:28:19.839Z,2983
2018-09-15T05:28:49.843Z,3017
2018-09-15T05:29:19.892Z,3063
2018-09-15T05:29:49.908Z,3117
2018-09-15T05:30:19.951Z,3167
2018-09-15T05:30:49.990Z,3200
2018-09-15T05:31:20.044Z,3247
2018-09-15T05:31:50.028Z,3277
2018-09-15T05:32:20.092Z,3300
2018-09-15T05:32:50.128Z,3350
2018-09-15T05:33:20.156Z,3387
2018-09-15T05:33:50.148Z,3417
2018-09-15T05:34:20.285Z,3447
2018-09-15T05:34:51.135Z,3483
2018-09-15T05:35:20.302Z,3523
2018-09-15T05:35:50.353Z,3560
2018-09-15T05:36:20.359Z,3607
2018-09-15T05:36:50.328Z,3633
2018-09-15T05:37:20.460Z,3717
2018-09-15T05:37:50.437Z,3780
2018-09-15T05:38:20.435Z,3800
2018-09-15T05:38:50.491Z,3857
2018-09-15T05:39:20.592Z,3950
2018-09-15T05:39:50.553Z,3973
2018-09-15T05:40:20.558Z,4047
2018-09-15T05:40:50.572Z,4140
2018-09-15T05:41:26.219Z,4263
2018-09-15T05:41:50.635Z,4447
2018-09-15T05:42:20.691Z,4703
2018-09-15T05:42:50.721Z,5057
2018-09-15T05:43:20.787Z,5243
2018-09-15T05:43:50.802Z,5413
2018-09-15T05:44:20.872Z,5660
2018-09-15T05:44:50.821Z,5810
2018-09-15T05:45:20.897Z,6003
2018-09-15T05:45:50.949Z,6200
2018-09-15T05:46:21.002Z,6350
2018-09-15T05:46:51.072Z,6483
2018-09-15T05:47:21.019Z,6607
2018-09-15T05:47:51.031Z,6730
2018-09-15T05:48:21.095Z,6723
2018-09-15T05:48:51.144Z,6810
2018-09-15T05:49:21.200Z,6793
2018-09-15T05:50:21.203Z,6917
2018-09-15T05:50:51.274Z,6827
2018-09-15T05:51:21.303Z,6797
2018-09-15T05:51:51.388Z,7003
2018-09-15T05:52:21.368Z,6970
2018-09-15T05:52:51.348Z,7460
2018-09-15T05:53:21.395Z,6873
2018-09-15T05:53:51.439Z,6733
2018-09-15T05:54:21.475Z,6643
2018-09-15T05:54:51.456Z,6567
2018-09-15T05:55:21.484Z,6477
2018-09-15T05:55:51.562Z,6463
2018-09-15T05:56:21.541Z,6520
2018-09-15T05:56:51.678Z,6587
2018-09-15T05:57:21.678Z,6610
2018-09-15T05:57:51.643Z,6417
2018-09-15T05:58:21.675Z,6443
2018-09-15T05:58:51.711Z,6477
2018-09-15T05:59:21.729Z,6473
2018-09-15T05:59:51.783Z,6600
2018-09-15T06:00:21.841Z,6673
2018-09-15T06:00:51.812Z,6587
2018-09-15T06:01:51.965Z,6427
2018-09-15T06:02:21.913Z,6410
2018-09-15T06:02:52.466Z,6423
2018-09-15T06:03:21.969Z,6377
2018-09-15T06:03:51.985Z,6477
2018-09-15T06:04:22.051Z,6417
2018-09-15T06:04:52.050Z,6477
2018-09-15T06:05:22.167Z,6467
2018-09-15T06:05:52.228Z,6473
2018-09-15T06:06:22.222Z,6520
2018-09-15T06:06:52.319Z,6530
2018-09-15T06:07:22.228Z,6463
2018-09-15T06:07:52.234Z,6407
2018-09-15T06:08:22.341Z,6420
2018-09-15T06:08:52.358Z,6340
2018-09-15T06:09:22.373Z,6583
2018-09-15T06:09:52.376Z,6337
2018-09-15T06:10:22.417Z,6167
2018-09-15T06:10:52.493Z,6157
2018-09-15T06:11:22.549Z,5973
2018-09-15T06:12:22.548Z,5947
2018-09-15T06:12:52.575Z,5807
2018-09-15T06:13:22.644Z,5760
2018-09-15T06:13:52.817Z,5713
2018-09-15T06:14:22.652Z,5783
2018-09-15T06:14:52.709Z,5597
2018-09-15T06:15:23.031Z,5730
2018-09-15T06:15:53.010Z,5590
2018-09-15T06:16:23.057Z,5577
2018-09-15T06:16:53.098Z,5570
2018-09-15T06:17:23.159Z,5560
2018-09-15T06:17:53.132Z,5613
2018-09-15T06:18:23.179Z,6223
2018-09-15T06:18:53.207Z,6507
2018-09-15T06:19:23.320Z,5807
2018-09-15T06:19:53.252Z,5533
2018-09-15T06:20:23.348Z,5710
2018-09-15T06:20:53.315Z,5800
2018-09-15T06:21:23.419Z,5910
2018-09-15T06:21:53.417Z,6010
2018-09-15T06:22:23.526Z,6573
2018-09-15T06:22:53.525Z,6067
2018-09-15T06:23:23.532Z,5920
2018-09-15T06:23:53.547Z,6600
2018-09-15T06:24:23.592Z,6077
2018-09-15T06:24:53.601Z,6150
2018-09-15T06:25:23.649Z,6527
2018-09-15T06:26:23.741Z,6160
2018-09-15T06:26:53.723Z,6330
2018-09-15T06:27:23.803Z,6407
2018-09-15T06:27:53.789Z,6103
2018-09-15T06:28:23.794Z,7480
2018-09-15T06:28:53.806Z,6657
2018-09-15T06:29:23.885Z,6400
2018-09-15T06:29:53.870Z,7147
2018-09-15T06:30:23.919Z,7520
2018-09-15T06:30:53.950Z,8050
2018-09-15T06:31:24.023Z,7273
2018-09-15T06:31:53.987Z,6230
2018-09-15T06:32:24.563Z,7710
2018-09-15T06:32:54.185Z,7373
2018-09-15T06:33:24.179Z,6823
2018-09-15T06:33:54.169Z,6400
2018-09-15T06:34:24.218Z,6367
2018-09-15T06:34:54.219Z,6427
2018-09-15T06:35:24.279Z,6613
2018-09-15T06:35:54.302Z,6530
2018-09-15T06:36:24.376Z,6410
2018-09-15T06:36:54.356Z,6300
2018-09-15T06:37:24.423Z,6403
2018-09-15T06:37:54.400Z,6523
2018-09-15T06:38:24.475Z,6447
2018-09-15T06:38:54.468Z,6507
2018-09-15T06:39:24.582Z,6510
2018-09-15T06:39:54.536Z,6520
2018-09-15T06:40:24.543Z,6560
2018-09-15T06:40:54.554Z,6740
2018-09-15T06:41:24.599Z,6570
2018-09-15T06:41:54.628Z,6733
2018-09-15T06:42:24.708Z,6670
2018-09-15T06:42:54.681Z,6893
2018-09-15T06:43:24.770Z,6913
2018-09-15T06:43:54.742Z,6963
2018-09-15T06:44:24.770Z,6983
2018-09-15T06:44:54.793Z,6997
2018-09-15T06:45:24.958Z,7313
2018-09-15T06:45:54.853Z,7350
2018-09-15T06:46:24.897Z,7347
2018-09-15T06:46:54.917Z,7203
2018-09-15T06:47:25.028Z,7423
2018-09-15T06:47:54.990Z,7503
2018-09-15T06:48:25.022Z,7300
2018-09-15T06:48:55.038Z,7350
2018-09-15T06:49:25.093Z,7583
2018-09-15T06:49:55.105Z,7437
2018-09-15T06:50:25.196Z,7783
2018-09-15T06:50:55.165Z,7510
2018-09-15T06:51:25.343Z,7767
2018-09-15T06:51:55.225Z,7593
2018-09-15T06:52:25.390Z,7680
2018-09-15T06:52:55.292Z,7750
2018-09-15T06:53:25.382Z,7757
2018-09-15T06:53:55.368Z,7843
2018-09-15T06:54:25.476Z,7890
2018-09-15T06:54:55.447Z,8000
2018-09-15T06:55:25.458Z,8173
2018-09-15T06:55:55.531Z,8317
2018-09-15T06:56:25.567Z,8573
2018-09-15T06:56:55.541Z,8993
2018-09-15T06:57:25.710Z,9527
2018-09-15T06:57:55.647Z,10073
2018-09-15T06:58:25.684Z,10923
2018-09-15T06:58:55.653Z,11947
2018-09-15T06:59:25.713Z,12893
2018-09-15T06:59:55.712Z,13993
2018-09-15T07:00:25.768Z,14980
2018-09-15T07:00:55.820Z,15827
2018-09-15T07:01:25.832Z,16627
2018-09-15T07:01:55.854Z,17220
2018-09-15T07:02:25.936Z,17223
2018-09-15T07:02:55.973Z,17117
2018-09-15T07:03:25.950Z,16577
2018-09-15T07:03:55.961Z,16767
2018-09-15T07:04:26.019Z,17523
2018-09-15T07:04:56.022Z,17057
2018-09-15T07:05:26.088Z,17327
2018-09-15T07:05:56.137Z,16780
2018-09-15T07:06:26.131Z,17153
2018-09-15T07:06:56.184Z,17103
2018-09-15T07:07:26.318Z,17010
2018-09-15T07:07:56.227Z,15737
2018-09-15T07:08:26.250Z,16030
2018-09-15T07:08:56.282Z,16733
2018-09-15T07:09:26.360Z,17067
2018-09-15T07:09:56.363Z,18493
2018-09-15T07:10:26.427Z,18490
2018-09-15T07:10:56.443Z,18133
2018-09-15T07:11:26.489Z,18173
2018-09-15T07:11:56.498Z,17787
2018-09-15T07:12:26.566Z,16747
2018-09-15T07:12:56.615Z,15787
2018-09-15T07:13:26.605Z,14523
2018-09-15T07:13:56.656Z,12933
2018-09-15T07:14:26.642Z,12467
2018-09-15T07:14:56.710Z,11990
2018-09-15T07:15:26.721Z,12637
2018-09-15T07:15:56.754Z,13260
2018-09-15T07:16:26.791Z,14293
2018-09-15T07:16:56.824Z,15013
2018-09-15T07:17:26.915Z,15977
2018-09-15T07:17:56.875Z,17257
2018-09-15T07:18:26.911Z,19183
2018-09-15T07:18:56.941Z,18707
2018-09-15T07:19:26.997Z,18323
2018-09-15T07:19:57.072Z,17170
2018-09-15T07:20:27.043Z,15383
2018-09-15T07:20:57.036Z,13380
2018-09-15T07:21:27.061Z,11787
2018-09-15T07:21:57.150Z,11053
2018-09-15T07:22:27.185Z,9670
2018-09-15T07:22:57.131Z,8917
2018-09-15T07:23:27.177Z,8527
2018-09-15T07:23:57.207Z,8920
2018-09-15T07:24:27.254Z,9863
2018-09-15T07:24:57.273Z,11027
2018-09-15T07:25:27.306Z,11860
2018-09-15T07:25:57.374Z,10267
2018-09-15T07:26:27.377Z,11353
2018-09-15T07:26:57.463Z,11133
2018-09-15T07:27:27.733Z,10363
2018-09-15T07:27:57.459Z,10713
2018-09-15T07:28:27.548Z,9450
2018-09-15T07:28:57.531Z,9033
2018-09-15T07:29:27.581Z,9803
2018-09-15T07:29:57.576Z,9720
2018-09-15T07:30:27.673Z,10070
2018-09-15T07:30:57.677Z,9650
2018-09-15T07:31:27.730Z,10417
2018-09-15T07:31:57.748Z,9640
2018-09-15T07:32:27.798Z,9830
2018-09-15T07:32:57.773Z,9813
2018-09-15T07:33:27.808Z,9980
2018-09-15T07:33:57.808Z,9910
2018-09-15T07:34:27.856Z,9880
2018-09-15T07:34:57.895Z,9940
2018-09-15T07:35:27.920Z,9723
2018-09-15T07:35:57.928Z,10067
2018-09-15T07:36:28.008Z,9987
2018-09-15T07:36:58.000Z,10173
2018-09-15T07:37:28.128Z,10497
2018-09-15T07:37:58.074Z,10127
2018-09-15T07:38:28.109Z,10307
2018-09-15T07:38:58.165Z,10727
2018-09-15T07:39:28.176Z,10130
2018-09-15T07:39:58.244Z,10070
2018-09-15T07:40:28.234Z,10887
2018-09-15T07:40:58.264Z,10563
2018-09-15T07:41:28.340Z,10647
2018-09-15T07:41:58.344Z,10837
2018-09-15T07:42:28.460Z,10347
2018-09-15T07:43:28.453Z,10977
2018-09-15T07:43:58.459Z,10627
2018-09-15T07:44:28.500Z,10780
2018-09-15T07:44:58.571Z,11160
2018-09-15T07:45:28.595Z,10547
2018-09-15T07:45:58.573Z,10643
2018-09-15T07:46:28.645Z,10573
2018-09-15T07:46:58.629Z,10410
2018-09-15T07:47:28.738Z,10633
2018-09-15T07:47:58.689Z,10467
2018-09-15T07:48:28.736Z,10563
2018-09-15T07:48:58.796Z,10593
2018-09-15T07:49:28.786Z,10560
2018-09-15T07:49:58.801Z,10867
2018-09-15T07:50:28.864Z,10783
2018-09-15T07:50:58.864Z,10793
2018-09-15T07:51:28.953Z,10747
2018-09-15T07:51:58.941Z,11150
2018-09-15T07:52:28.996Z,11367
2018-09-15T07:52:58.997Z,11210
2018-09-15T07:53:29.028Z,11823
2018-09-15T07:53:59.052Z,11493
2018-09-15T07:54:29.137Z,12063
2018-09-15T07:54:59.113Z,11457
2018-09-15T07:55:29.212Z,11833
2018-09-15T07:55:59.187Z,12200
2018-09-15T07:56:29.220Z,12003
2018-09-15T07:56:59.289Z,12313
2018-09-15T07:57:29.421Z,12470
2018-09-15T07:57:59.561Z,14277
2018-09-15T07:58:29.406Z,13217
2018-09-15T07:58:59.386Z,12553
2018-09-15T07:59:29.449Z,12760
2018-09-15T07:59:59.456Z,12573
2018-09-15T08:00:29.493Z,12813
2018-09-15T08:00:59.565Z,12977
2018-09-15T08:01:29.612Z,12693
2018-09-15T08:01:59.699Z,12930
2018-09-15T08:02:29.669Z,12683
2018-09-15T08:02:59.689Z,12863
2018-09-15T08:03:29.695Z,12743
2018-09-15T08:03:59.690Z,13063
2018-09-15T08:04:29.752Z,12957
2018-09-15T08:04:59.790Z,13277
2018-09-15T08:05:29.805Z,13130
2018-09-15T08:05:59.829Z,13110
2018-09-15T08:06:29.910Z,13140
2018-09-15T08:06:59.949Z,13143
2018-09-15T08:07:29.898Z,13440
2018-09-15T08:07:59.973Z,13363
2018-09-15T08:08:30.008Z,13753
2018-09-15T08:09:00.004Z,13683
2018-09-15T08:09:30.076Z,14323
2018-09-15T08:10:00.073Z,14090
2018-09-15T08:10:30.122Z,14670
2018-09-15T08:11:00.177Z,15213
2018-09-15T08:11:30.181Z,15480
2018-09-15T08:12:00.203Z,16257
2018-09-15T08:12:30.209Z,16987
2018-09-15T08:13:02.035Z,18750
2018-09-15T08:13:30.303Z,19950
2018-09-15T08:14:01.485Z,22030
2018-09-15T08:14:30.386Z,24423
2018-09-15T08:15:00.941Z,26770
2018-09-15T08:15:30.417Z,28720
2018-09-15T08:16:01.029Z,39020
2018-09-15T08:16:30.455Z,31193
2018-09-15T08:17:01.411Z,34153
2018-09-15T08:17:30.539Z,30057
2018-09-15T08:18:01.572Z,30067
2018-09-15T08:18:30.600Z,28863
2018-09-15T08:19:01.584Z,25737
2018-09-15T08:19:30.665Z,25187
2018-09-15T08:20:01.517Z,25063
2018-09-15T08:20:30.699Z,25297
2018-09-15T08:21:01.175Z,25547
2018-09-15T08:21:30.837Z,25047
2018-09-15T08:22:00.949Z,25063
2018-09-15T08:22:30.854Z,26093
2018-09-15T08:23:01.652Z,24983
2018-09-15T08:23:30.888Z,24590
2018-09-15T08:24:01.705Z,26167
2018-09-15T08:24:30.967Z,27063
2018-09-15T08:25:01.897Z,25113
2018-09-15T08:25:31.005Z,23440
2018-09-15T08:26:01.023Z,20760
2018-09-15T08:26:31.133Z,21330
2018-09-15T08:27:02.105Z,23857
2018-09-15T08:27:31.159Z,22690
2018-09-15T08:28:01.571Z,23900
2018-09-15T08:28:31.223Z,26953
2018-09-15T08:29:01.664Z,30470
2018-09-15T08:29:31.270Z,33933
2018-09-15T08:30:01.722Z,45047
2018-09-15T08:30:31.357Z,42527
2018-09-15T08:31:01.336Z,58320
2018-09-15T08:31:31.430Z,32990
2018-09-15T08:32:01.457Z,38190
2018-09-15T08:32:31.476Z,41700
2018-09-15T08:33:01.555Z,44027
2018-09-15T08:33:31.587Z,49770
2018-09-15T08:34:01.519Z,46587
2018-09-15T08:34:31.620Z,55770
2018-09-15T08:35:01.606Z,58847
2018-09-15T08:35:31.646Z,55990
2018-09-15T08:36:01.640Z,51020
2018-09-15T08:36:31.688Z,38433
2018-09-15T08:37:02.669Z,38030
2018-09-15T08:37:31.757Z,33777
2018-09-15T08:38:01.779Z,35000
2018-09-15T08:38:31.814Z,31790
2018-09-15T08:39:02.127Z,29683
2018-09-15T08:39:31.950Z,29660
2018-09-15T08:40:01.894Z,30867
2018-09-15T08:40:31.973Z,30370
2018-09-15T08:41:01.941Z,30853
2018-09-15T08:41:31.995Z,30940
2018-09-15T08:42:02.025Z,31673
2018-09-15T08:42:32.052Z,33197
2018-09-15T08:43:02.101Z,35570
2018-09-15T08:43:32.110Z,37013
2018-09-15T08:44:02.545Z,36217
2018-09-15T08:44:32.230Z,36333
2018-09-15T08:45:02.192Z,36383
2018-09-15T08:45:32.268Z,37243
2018-09-15T08:46:02.256Z,58760
2018-09-15T08:46:32.317Z,38183
2018-09-15T08:47:02.321Z,36530
2018-09-15T08:47:32.395Z,36623
2018-09-15T08:48:02.375Z,37047
2018-09-15T08:48:32.486Z,36520
2018-09-15T08:49:02.502Z,37333
2018-09-15T08:49:32.526Z,35837
2018-09-15T08:50:02.520Z,34550
2018-09-15T08:50:32.590Z,34937
2018-09-15T08:51:02.607Z,34327
2018-09-15T08:51:32.643Z,34707
2018-09-15T08:52:02.650Z,36513
2018-09-15T08:52:32.687Z,35707
2018-09-15T08:53:02.683Z,35433
2018-09-15T08:53:32.799Z,36693
2018-09-15T08:54:02.807Z,37077
2018-09-15T08:54:32.839Z,37730
2018-09-15T08:55:02.891Z,37513
2018-09-15T08:55:32.891Z,36820
2018-09-15T08:56:02.964Z,36653
2018-09-15T08:56:32.968Z,36260
2018-09-15T08:57:02.970Z,35510
2018-09-15T08:57:33.033Z,35173
2018-09-15T08:58:03.047Z,35073
2018-09-15T08:58:33.075Z,35453
2018-09-15T08:59:03.125Z,35647
2018-09-15T08:59:33.152Z,36240
2018-09-15T09:00:03.167Z,36393
2018-09-15T09:00:33.229Z,36477
2018-09-15T09:01:03.225Z,36330
2018-09-15T09:01:33.284Z,36087
2018-09-15T09:02:03.269Z,35873
2018-09-15T09:02:33.334Z,35673
2018-09-15T09:03:03.359Z,35510
2018-09-15T09:03:33.424Z,35270
2018-09-15T09:04:03.453Z,34817
2018-09-15T09:04:33.453Z,34627
2018-09-15T09:05:03.441Z,34120
2018-09-15T09:05:33.523Z,33567
2018-09-15T09:06:03.532Z,32397
2018-09-15T09:06:33.590Z,31593
2018-09-15T09:07:03.556Z,30523
2018-09-15T09:07:33.606Z,30597
2018-09-15T09:08:03.609Z,30920
2018-09-15T09:08:33.708Z,44287
2018-09-15T09:09:03.741Z,31017
2018-09-15T09:09:33.765Z,31077
2018-09-15T09:10:03.735Z,30607
2018-09-15T09:10:33.777Z,32163
2018-09-15T09:11:03.799Z,30760
2018-09-15T09:11:33.852Z,30470
2018-09-15T09:12:03.865Z,30170
2018-09-15T09:12:33.923Z,31327
2018-09-15T09:13:03.921Z,36210
2018-09-15T09:13:33.965Z,36900
2018-09-15T09:14:04.006Z,38400
2018-09-15T09:14:34.028Z,38813
2018-09-15T09:15:04.039Z,38360
2018-09-15T09:15:34.092Z,46883
2018-09-15T09:16:04.187Z,40183
2018-09-15T09:16:34.151Z,66760
2018-09-15T09:17:04.167Z,51737
2018-09-15T09:17:34.234Z,31473
2018-09-15T09:18:04.230Z,31657
2018-09-15T09:18:34.320Z,42640
2018-09-15T09:19:04.347Z,57053
2018-09-15T09:19:34.387Z,31687
2018-09-15T09:20:04.430Z,32377
2018-09-15T09:20:34.500Z,66140
2018-09-15T09:21:04.428Z,35277
2018-09-15T09:21:34.512Z,62243
2018-09-15T09:22:04.500Z,75823
2018-09-15T09:22:34.629Z,60013
2018-09-15T09:23:04.581Z,81663
2018-09-15T09:23:34.604Z,82727
2018-09-15T09:24:04.647Z,79793
2018-09-15T09:24:34.641Z,79563
2018-09-15T09:25:04.665Z,82480
2018-09-15T09:25:34.805Z,55027
2018-09-15T09:26:04.766Z,58777
2018-09-15T09:26:34.880Z,70777
2018-09-15T09:27:04.783Z,73083
2018-09-15T09:27:34.833Z,73713
2018-09-15T09:28:04.848Z,71417
2018-09-15T09:28:34.904Z,73637
2018-09-15T09:29:04.909Z,66737
2018-09-15T09:29:34.958Z,76707
2018-09-15T09:30:04.970Z,78273
2018-09-15T09:30:35.039Z,72967
2018-09-15T09:31:05.047Z,79633
2018-09-15T09:31:35.099Z,76067
2018-09-15T09:32:05.092Z,78813
2018-09-15T09:32:35.153Z,79293
2018-09-15T09:33:05.215Z,76820
2018-09-15T09:33:35.213Z,76307
2018-09-15T09:34:05.237Z,76923
2018-09-15T09:34:35.309Z,78060
2018-09-15T09:35:05.333Z,78620
2018-09-15T09:35:35.397Z,78010
2018-09-15T09:36:05.402Z,80400
2018-09-15T09:36:35.434Z,75983
2018-09-15T09:37:05.442Z,79800
2018-09-15T09:37:35.475Z,80140
2018-09-15T09:38:05.518Z,77930
2018-09-15T09:38:35.532Z,80247
2018-09-15T09:39:05.544Z,80337
2018-09-15T09:39:35.595Z,80600
2018-09-15T09:40:05.611Z,78007
2018-09-15T09:40:35.717Z,80140
2018-09-15T09:41:05.718Z,80977
2018-09-15T09:41:35.879Z,81867
2018-09-15T09:42:05.746Z,83417
2018-09-15T09:42:35.802Z,83810
2018-09-15T09:43:05.763Z,84560
2018-09-15T09:43:35.880Z,84327
2018-09-15T09:44:05.915Z,84370
2018-09-15T09:44:35.915Z,82420
2018-09-15T09:45:05.934Z,81133
2018-09-15T09:45:35.982Z,81473
2018-09-15T09:46:06.034Z,80077
2018-09-15T09:46:36.063Z,79117
2018-09-15T09:47:06.073Z,78917
2018-09-15T09:47:36.127Z,78083
2018-09-15T09:48:06.168Z,77393
2018-09-15T09:48:36.182Z,77750
2018-09-15T09:49:06.221Z,79497
2018-09-15T09:49:36.247Z,80070
2018-09-15T09:50:06.194Z,81120
2018-09-15T09:50:36.855Z,82813
2018-09-15T09:51:06.843Z,84283
2018-09-15T09:51:36.892Z,86017
2018-09-15T09:52:06.903Z,87097
2018-09-15T09:52:36.956Z,87520
2018-09-15T09:53:06.966Z,86767
2018-09-15T09:53:37.019Z,86613
2018-09-15T09:54:07.027Z,86367
2018-09-15T09:54:37.080Z,85113
2018-09-15T09:55:07.139Z,82660
2018-09-15T09:55:37.280Z,84977
2018-09-15T09:56:07.212Z,85367
2018-09-15T09:56:37.237Z,85887
2018-09-15T09:57:07.212Z,84707
2018-09-15T09:57:37.342Z,69023
2018-09-15T09:58:07.292Z,77053
2018-09-15T09:58:37.395Z,85283
2018-09-15T09:59:07.394Z,85163
2018-09-15T09:59:37.435Z,85283
2018-09-15T10:00:07.456Z,82260
2018-09-15T10:00:37.486Z,83700
2018-09-15T10:01:07.515Z,83103
2018-09-15T10:01:37.539Z,81030
2018-09-15T10:02:07.588Z,80867
2018-09-15T10:02:37.585Z,80277
2018-09-15T10:03:07.621Z,79300
2018-09-15T10:03:37.666Z,78280
2018-09-15T10:04:07.643Z,78250
2018-09-15T10:04:37.700Z,75570
2018-09-15T10:05:07.744Z,76590
2018-09-15T10:05:39.008Z,77233
2018-09-15T10:06:08.548Z,76820
2018-09-15T10:06:38.564Z,77080
2018-09-15T10:07:08.648Z,77427
2018-09-15T10:07:38.634Z,77147
2018-09-15T10:08:08.647Z,77183
2018-09-15T10:08:38.673Z,76923
2018-09-15T10:09:08.707Z,76650
2018-09-15T10:09:38.755Z,76047
2018-09-15T10:10:08.756Z,74423
2018-09-15T10:10:38.864Z,77660
2018-09-15T10:11:09.393Z,77140
2018-09-15T10:11:39.490Z,78600
2018-09-15T10:12:09.510Z,77857
2018-09-15T10:12:39.508Z,78167
2018-09-15T10:13:09.531Z,78800
2018-09-15T10:13:39.539Z,78643
2018-09-15T10:14:09.557Z,78247
2018-09-15T10:14:39.663Z,78477
2018-09-15T10:15:09.649Z,78487
2018-09-15T10:15:40.387Z,78777
2018-09-15T10:16:10.465Z,79107
2018-09-15T10:16:40.461Z,78797
2018-09-15T10:17:10.501Z,77887
2018-09-15T10:17:40.488Z,76787
2018-09-15T10:18:10.561Z,76593
2018-09-15T10:18:40.552Z,77433
2018-09-15T10:19:10.633Z,76997
2018-09-15T10:19:40.651Z,77697
2018-09-15T10:20:10.639Z,78010
2018-09-15T10:20:40.751Z,78170
2018-09-15T10:21:10.691Z,78430
2018-09-15T10:21:40.856Z,77827
2018-09-15T10:22:10.810Z,78270
2018-09-15T10:22:40.797Z,78193
2018-09-15T10:23:10.807Z,77417
2018-09-15T10:23:40.858Z,77063
2018-09-15T10:24:10.868Z,79593
2018-09-15T10:24:40.939Z,79883
2018-09-15T10:25:10.930Z,79787
2018-09-15T10:25:41.040Z,80153
2018-09-15T10:26:11.014Z,80053
2018-09-15T10:26:41.058Z,80507
2018-09-15T10:27:11.065Z,81160
2018-09-15T10:27:41.156Z,80927
2018-09-15T10:28:11.115Z,81070
2018-09-15T10:28:41.189Z,81867
2018-09-15T10:29:11.175Z,82283
2018-09-15T10:29:41.336Z,81937
2018-09-15T10:30:11.256Z,83470
2018-09-15T10:30:41.461Z,84500
2018-09-15T10:31:11.365Z,84883
2018-09-15T10:31:41.399Z,86313
2018-09-15T10:32:11.475Z,88147
2018-09-15T10:32:41.463Z,89007
2018-09-15T10:33:11.488Z,88553
2018-09-15T10:33:41.475Z,88743
2018-09-15T10:34:11.510Z,85510
2018-09-15T10:34:41.596Z,86820
2018-09-15T10:35:11.576Z,90223
2018-09-15T10:35:41.659Z,91507
2018-09-15T10:36:11.671Z,91337
2018-09-15T10:36:41.795Z,89847
2018-09-15T10:37:11.718Z,90357
2018-09-15T10:37:41.721Z,91473
2018-09-15T10:38:11.766Z,91593
2018-09-15T10:38:41.836Z,93220
2018-09-15T10:39:11.854Z,95410
2018-09-15T10:39:41.885Z,94873
2018-09-15T10:40:11.929Z,96350
2018-09-15T10:40:41.977Z,98607
2018-09-15T10:41:11.952Z,99793
2018-09-15T10:41:41.988Z,100407
2018-09-15T10:42:11.979Z,102387
2018-09-15T10:42:42.089Z,49887
2018-09-15T10:43:12.149Z,38863
2018-09-15T10:43:42.186Z,36300
2018-09-15T10:44:12.219Z,100943
2018-09-15T10:44:44.023Z,96640
2018-09-15T10:45:14.379Z,98067
2018-09-15T10:45:45.172Z,40223
2018-09-15T10:46:15.185Z,41550
2018-09-15T10:46:45.290Z,107747
2018-09-15T10:47:15.299Z,103877
2018-09-15T10:47:45.319Z,84947
2018-09-15T10:48:15.385Z,106363
2018-09-15T10:48:45.385Z,104607
2018-09-15T10:49:15.379Z,58503
2018-09-15T10:49:45.468Z,98883
2018-09-15T10:50:15.431Z,98747
2018-09-15T10:50:45.467Z,99687
2018-09-15T10:51:15.574Z,101560
2018-09-15T10:51:45.554Z,102343
2018-09-15T10:52:15.609Z,101497
2018-09-15T10:52:45.604Z,101307
2018-09-15T10:53:15.677Z,105093
2018-09-15T10:53:45.658Z,49020
2018-09-15T10:54:15.666Z,35030
2018-09-15T10:54:45.777Z,33077
2018-09-15T10:55:16.602Z,31613
2018-09-15T10:55:46.657Z,31173
2018-09-15T10:56:16.907Z,32757
2018-09-15T10:56:47.430Z,75677
2018-09-15T10:57:17.439Z,104923
2018-09-15T10:57:47.452Z,58260
2018-09-15T10:58:17.530Z,36513
2018-09-15T10:58:47.516Z,34037
2018-09-15T10:59:17.607Z,33137
2018-09-15T10:59:47.583Z,34077
2018-09-15T11:00:17.718Z,37143
2018-09-15T11:00:47.712Z,100337
2018-09-15T11:01:17.736Z,35883
2018-09-15T11:01:47.698Z,52740
2018-09-15T11:02:17.782Z,70460
2018-09-15T11:02:47.814Z,95340